This is the latest recevied weather packets stored in our database for station/object SHLBYV-WX. If no packets are shown the sender has not sent any weather packets the latest 10 day(s).
| Time | Temp. | Humidity | Pressure | Rain* | Wind** | Luminosity | Snow |
|---|---|---|---|---|---|---|---|
| 1777626948 | 2.78° C | 90% | 985 hPa | 0 mm | - | - | - |
| 1777626075 | 2.78° C | 90% | 985 hPa | 0 mm | - | - | - |
| 1777625147 | 2.78° C | 85% | 984.9 hPa | 0 mm | - | - | - |
| 1777624262 | 2.78° C | 89% | 984.4 hPa | 0 mm | - | - | - |
| 1777623348 | 3.33° C | 89% | 984.4 hPa | 0 mm | - | - | - |
| 1777622477 | 3.33° C | 89% | 984.4 hPa | 0 mm | - | - | - |
| 1777621548 | 3.33° C | 88% | 984.7 hPa | 0 mm | - | - | - |
| 1777620667 | 3.33° C | 88% | 984.7 hPa | 0 mm | - | - | - |
| 1777619748 | 3.33° C | 88% | 984.7 hPa | 0 mm | - | - | - |
| 1777618877 | 3.89° C | 88% | 984.7 hPa | 0 mm | - | - | - |
| 1777617948 | 3.89° C | 86% | 985.3 hPa | 0 mm | - | - | - |
| 1777617068 | 3.89° C | 86% | 984.5 hPa | 0 mm | - | - | - |
| 1777616148 | 3.89° C | 86% | 984.5 hPa | 0 mm | - | - | - |
| 1777615287 | 3.89° C | 86% | 984.5 hPa | 0 mm | - | - | - |
| 1777614349 | 3.89° C | 83% | 985.7 hPa | 0 mm | - | - | - |
| 1777613467 | 3.89° C | 89% | 985.2 hPa | 0 mm | - | - | - |
| 1777612551 | 3.89° C | 89% | 985.2 hPa | 0 mm | - | - | - |
| 1777611678 | 3.89° C | 89% | 985.2 hPa | 0 mm | - | - | - |
| 1777610749 | 3.89° C | 82% | 986.5 hPa | 0 mm | - | - | - |
| 1777609867 | 4.44° C | 85% | 985.6 hPa | 0 mm | - | - | - |
| 1777608949 | 4.44° C | 85% | 985.6 hPa | 0 mm | - | - | - |
| 1777608080 | 4.44° C | 85% | 985.6 hPa | 0 mm | - | - | - |
| 1777607150 | 4.44° C | 76% | 985.7 hPa | 0 mm | - | - | - |
| 1777606265 | 5° C | 77% | 985.3 hPa | 0 mm | - | - | - |
| 1777605349 | 5° C | 77% | 985.3 hPa | 0 mm | - | - | - |
* Rain latest hour (hover to see other rain measurements)
** Current wind speed in m/s (hover to see current wind gust speed)